Time;durP1;ratioP1;P1;durP2;ratioP2;P2;SDS_P1;SDS_P2;PMS_P1;PMS_P2;Temp;Humidity;BMP_temperature;BMP_pressure;BME280_temperature;BME280_humidity;BME280_pressure;Samples;Min_cycle;Max_cycle;Signal;HPM_P1;HPM_P2
2022/10/21 00:02:49;;;;;;;30.08;13.77;;;;;;;20.53;63.10;99044.72;4945272;28;20058;-67
2022/10/21 00:05:31;;;;;;;27.50;13.15;;;;;;;20.58;62.88;99040.38;5055888;28;20045;-67
2022/10/21 00:08:20;;;;;;;25.73;13.32;;;;;;;20.47;62.01;99051.28;4944800;28;20086;-67
2022/10/21 00:11:08;;;;;;;24.38;12.35;;;;;;;20.54;62.74;99057.28;5037762;28;20053;-66
2022/10/21 00:13:57;;;;;;;25.65;12.93;;;;;;;20.54;61.99;99060.03;4964473;28;20051;-67
2022/10/21 00:16:46;;;;;;;20.60;12.02;;;;;;;20.27;62.51;99057.53;5049778;28;20064;-66
2022/10/21 00:19:28;;;;;;;22.67;11.23;;;;;;;20.37;62.13;99058.63;5044670;28;20052;-67
2022/10/21 00:22:17;;;;;;;28.10;12.65;;;;;;;20.48;61.85;99055.66;5044607;28;20041;-66
2022/10/21 00:25:13;;;;;;;27.42;12.70;;;;;;;20.32;62.41;99059.44;5044561;28;20160;-66
2022/10/21 00:27:48;;;;;;;29.90;14.25;;;;;;;20.23;63.33;99063.78;5046140;28;20147;-66
2022/10/21 00:30:42;;;;;;;30.73;15.07;;;;;;;20.28;62.37;99052.88;5045841;28;20064;-67
2022/10/21 00:33:32;;;;;;;27.45;14.85;;;;;;;20.59;62.56;99053.75;5056277;28;20068;-66
2022/10/21 00:36:21;;;;;;;27.23;16.17;;;;;;;20.58;62.50;99049.38;5064991;28;20881;-66
2022/10/21 00:39:10;;;;;;;34.72;15.95;;;;;;;20.24;62.70;99046.34;5065781;28;20048;-67
2022/10/21 00:41:53;;;;;;;33.00;17.15;;;;;;;20.45;62.31;99047.19;5064989;28;20044;-66
2022/10/21 00:44:43;;;;;;;33.30;16.45;;;;;;;20.38;62.29;99047.44;5045771;28;20110;-67
2022/10/21 00:47:25;;;;;;;41.08;19.13;;;;;;;20.09;63.18;99045.19;5045788;28;20098;-66
2022/10/21 00:50:47;;;;;;;37.67;17.20;;;;;;;20.39;62.47;99057.28;5045589;28;20098;-67
2022/10/21 00:53:31;;;;;;;40.67;17.65;;;;;;;20.13;63.05;99056.38;5059389;28;20494;-65
2022/10/21 00:56:25;;;;;;;30.75;16.63;;;;;;;20.26;62.75;99064.06;5066057;28;20590;-67
2022/10/21 00:59:07;;;;;;;34.00;16.35;;;;;;;20.38;62.83;99063.78;4964540;28;20055;-67
2022/10/21 01:01:56;;;;;;;39.17;18.05;;;;;;;20.49;62.39;99057.28;5059018;28;20368;-67
2022/10/21 01:04:38;;;;;;;30.02;15.18;;;;;;;20.37;62.70;99058.63;5060753;28;20564;-68
2022/10/21 01:07:27;;;;;;;27.95;13.73;;;;;;;20.13;62.80;99059.13;5063766;28;20040;-68
2022/10/21 01:10:28;;;;;;;24.65;12.80;;;;;;;20.18;63.16;99064.59;5063837;28;20045;-68
2022/10/21 01:13:21;;;;;;;28.95;13.07;;;;;;;20.10;62.97;99068.66;4695883;28;9999675;-69
2022/10/21 01:16:19;;;;;;;23.98;12.07;;;;;;;20.27;62.68;99067.59;4959903;28;20862;-68
2022/10/21 01:19:41;;;;;;;26.75;11.93;;;;;;;20.31;62.79;99079.59;5061811;28;20137;-67
2022/10/21 01:22:56;;;;;;;18.80;11.02;;;;;;;20.65;61.86;99090.03;5061423;28;20044;-67
2022/10/21 01:25:50;;;;;;;22.35;11.27;;;;;;;20.78;61.69;99099.63;5042474;28;20045;-69
2022/10/21 01:28:42;;;;;;;22.42;10.63;;;;;;;20.50;63.32;99099.81;5041293;28;20132;-66
2022/10/21 01:31:44;;;;;;;21.20;11.38;;;;;;;20.68;62.06;99105.88;5042602;28;20076;-67
2022/10/21 01:34:42;;;;;;;29.25;10.60;;;;;;;20.52;62.42;99108.56;5022484;28;20045;-66
2022/10/21 01:38:11;;;;;;;24.52;11.13;;;;;;;20.99;61.43;99116.81;4922997;28;20074;-66
2022/10/21 01:41:21;;;;;;;20.17;10.48;;;;;;;20.96;61.21;99134.56;5028002;28;20055;-65
2022/10/21 01:44:11;;;;;;;20.08;10.82;;;;;;;21.01;60.41;99141.91;5023163;28;20054;-67
2022/10/21 01:47:08;;;;;;;20.67;10.50;;;;;;;20.67;61.32;99139.69;4925087;28;20064;-67
2022/10/21 01:49:57;;;;;;;20.77;10.23;;;;;;;20.50;61.47;99148.91;5029523;28;20631;-66
2022/10/21 01:52:50;;;;;;;19.08;9.68;;;;;;;21.11;60.68;99158.28;5018588;28;20566;-66
2022/10/21 01:55:37;;;;;;;20.45;9.98;;;;;;;21.29;59.11;99163.19;5034936;28;20049;-66
2022/10/21 01:58:32;;;;;;;18.65;9.50;;;;;;;20.86;60.04;99154.44;5030532;28;20115;-66
2022/10/21 02:01:17;;;;;;;18.27;8.95;;;;;;;21.07;59.71;99162.66;5031819;28;20075;-66
2022/10/21 02:04:15;;;;;;;18.80;8.23;;;;;;;21.38;59.02;99171.69;5045040;28;20049;-66
2022/10/21 02:06:50;;;;;;;18.13;8.70;;;;;;;21.38;58.03;99179.03;5044983;28;20114;-65
2022/10/21 02:09:40;;;;;;;14.05;8.50;;;;;;;21.43;58.35;99179.03;5045285;28;20051;-66
2022/10/21 02:12:23;;;;;;;22.55;8.93;;;;;;;21.28;58.97;99190.75;5025099;28;20049;-66
2022/10/21 02:15:19;;;;;;;13.85;8.00;;;;;;;21.30;58.47;99189.41;5041807;28;20069;-66
2022/10/21 02:18:27;;;;;;;18.58;7.90;;;;;;;21.29;58.74;99201.41;5045227;28;20063;-66
2022/10/21 02:21:19;;;;;;;16.33;8.13;;;;;;;21.77;57.58;99206.63;5031224;28;20065;-66
2022/10/21 02:24:12;;;;;;;14.80;7.55;;;;;;;21.80;57.52;99206.06;5032657;28;20061;-66
2022/10/21 02:27:01;;;;;;;15.43;7.72;;;;;;;21.61;58.06;99216.75;5045014;28;20524;-66
2022/10/21 02:29:46;;;;;;;14.95;7.82;;;;;;;21.66;58.18;99218.63;5044752;28;20049;-66
2022/10/21 02:32:38;;;;;;;17.20;7.43;;;;;;;21.60;58.65;99225.22;5064751;28;20048;-66
2022/10/21 02:35:52;;;;;;;15.95;7.18;;;;;;;21.59;58.55;99223.56;5067988;28;20135;-66
2022/10/21 02:38:46;;;;;;;14.98;8.02;;;;;;;22.16;57.55;99224.28;5040992;28;20068;-66
2022/10/21 02:41:33;;;;;;;15.18;7.45;;;;;;;21.68;57.98;99228.19;5058890;28;20055;-66
2022/10/21 02:44:22;;;;;;;16.20;7.60;;;;;;;22.07;57.58;99238.53;5063746;28;20052;-66
2022/10/21 02:47:04;;;;;;;16.48;7.00;;;;;;;22.00;57.12;99246.19;5068508;28;20795;-66
2022/10/21 02:49:53;;;;;;;18.88;7.55;;;;;;;22.10;58.08;99248.06;5056886;28;20101;-66
2022/10/21 02:52:35;;;;;;;19.23;8.25;;;;;;;22.34;56.41;99263.94;5040449;28;20143;-66
2022/10/21 02:55:24;;;;;;;15.80;7.70;;;;;;;22.09;57.49;99260.94;5048916;28;20045;-67
2022/10/21 02:58:06;;;;;;;9.95;7.90;;;;;;;22.51;56.92;99264.41;5027373;28;20105;-66
2022/10/21 03:00:55;;;;;;;16.48;8.10;;;;;;;21.93;58.55;99267.50;5053487;28;20663;-66
2022/10/21 03:03:37;;;;;;;15.00;8.15;;;;;;;22.08;57.51;99270.22;5067596;28;20153;-66
2022/10/21 03:06:26;;;;;;;19.45;8.13;;;;;;;22.46;56.67;99286.31;5067947;28;20056;-66
2022/10/21 03:09:08;;;;;;;19.40;7.75;;;;;;;22.56;56.59;99285.44;5067800;28;20076;-66
2022/10/21 03:11:57;;;;;;;17.45;7.72;;;;;;;22.79;56.03;99289.44;5065636;28;20426;-67
2022/10/21 03:14:39;;;;;;;19.38;8.15;;;;;;;22.50;57.08;99292.84;5067769;28;20048;-66
2022/10/21 03:17:28;;;;;;;15.32;7.78;;;;;;;22.87;56.16;99295.16;5067877;28;20064;-66
2022/10/21 03:20:10;;;;;;;14.40;7.68;;;;;;;22.41;56.55;99294.50;5067100;28;20106;-67
2022/10/21 03:22:59;;;;;;;15.35;7.38;;;;;;;23.05;55.98;99295.66;5067961;28;20768;-66
2022/10/21 03:25:41;;;;;;;16.60;7.72;;;;;;;23.17;55.32;99293.38;5066530;28;20048;-68
2022/10/21 03:28:36;;;;;;;104.90;11.80;;;;;;;23.59;55.29;99296.66;4963555;28;20120;-68
2022/10/21 03:31:11;;;;;;;20.02;8.13;;;;;;;23.53;54.68;99297.81;4963655;28;20134;-68
2022/10/21 03:34:01;;;;;;;17.88;7.28;;;;;;;23.58;54.52;99301.34;4963582;28;20082;-68
2022/10/21 03:36:43;;;;;;;20.23;8.73;;;;;;;23.70;55.08;99308.38;4964506;28;20489;-68
2022/10/21 03:39:38;;;;;;;18.92;8.15;;;;;;;23.93;54.80;99310.41;4957758;28;20046;-68
2022/10/21 03:42:13;;;;;;;16.70;8.75;;;;;;;24.04;53.37;99313.88;4965498;28;20050;-68
2022/10/21 03:45:03;;;;;;;;;;;;;;;24.33;53.06;99322.09;4965927;28;20057;-68
2022/10/21 03:47:46;;;;;;;14.43;7.32;;;;;;;24.18;52.99;99323.06;4965542;28;19922;-67
2022/10/21 03:50:35;;;;;;;14.88;8.07;;;;;;;24.47;52.95;99324.13;5065111;28;20060;-68
2022/10/21 03:53:17;;;;;;;15.90;7.82;;;;;;;24.50;52.53;99324.38;5055475;28;20137;-68
2022/10/21 03:56:23;;;;;;;24.90;7.90;;;;;;;25.00;50.92;99318.59;5054435;28;20565;-68
2022/10/21 03:59:05;;;;;;;22.20;7.70;;;;;;;25.06;50.91;99311.91;5066766;28;20041;-68
2022/10/21 04:01:54;;;;;;;12.45;7.20;;;;;;;25.01;50.34;99331.19;5066466;28;20117;-67
2022/10/21 04:04:36;;;;;;;12.65;7.20;;;;;;;25.04;49.61;99325.13;5065778;28;20067;-69
2022/10/21 04:07:25;;;;;;;13.13;6.88;;;;;;;25.56;48.38;99325.25;5064772;28;20049;-68
2022/10/21 04:10:07;;;;;;;14.35;7.72;;;;;;;25.49;48.93;99331.13;5066241;28;20152;-68
2022/10/21 04:12:56;;;;;;;17.77;7.60;;;;;;;26.50;47.26;99326.13;5065979;28;20090;-68
2022/10/21 04:15:38;;;;;;;15.90;7.40;;;;;;;26.63;46.11;99330.06;5066081;28;20060;-68
2022/10/21 04:18:27;;;;;;;17.77;7.05;;;;;;;26.74;46.00;99332.28;4964486;28;20133;-69
2022/10/21 04:21:09;;;;;;;14.07;6.75;;;;;;;26.81;45.17;99331.06;4986936;28;20055;-69
2022/10/21 04:24:04;;;;;;;16.48;6.53;;;;;;;27.19;46.93;99341.84;4974739;28;20053;-68
2022/10/21 04:26:53;;;;;;;13.52;5.57;;;;;;;27.39;44.12;99341.41;5057962;28;20057;-69
2022/10/21 04:29:42;;;;;;;16.00;6.03;;;;;;;27.14;44.27;99340.81;5056255;28;20081;-69
2022/10/21 04:32:31;;;;;;;12.85;6.28;;;;;;;27.62;42.95;99341.47;4948830;28;20050;-69
2022/10/21 04:35:21;;;;;;;17.00;6.00;;;;;;;27.59;43.40;99339.31;5040255;28;20049;-68
2022/10/21 04:38:03;;;;;;;14.23;5.67;;;;;;;28.54;43.08;99330.06;4946219;28;20117;-68
2022/10/21 04:40:53;;;;;;;14.98;5.95;;;;;;;28.14;42.98;99327.25;5050309;28;20045;-69
2022/10/21 04:43:37;;;;;;;13.77;6.27;;;;;;;28.40;41.75;99333.72;5064266;28;20059;-69
2022/10/21 04:46:26;;;;;;;12.07;6.07;;;;;;;28.14;41.22;99330.00;5065817;28;20135;-69
2022/10/21 04:49:15;;;;;;;10.15;6.07;;;;;;;28.26;40.73;99325.53;4950973;28;20438;-68
2022/10/21 04:52:04;;;;;;;10.68;6.00;;;;;;;28.46;40.15;99334.38;5054915;28;20052;-68
2022/10/21 04:54:53;;;;;;;11.93;6.38;;;;;;;28.45;41.25;99327.22;5052577;28;20483;-69
2022/10/21 04:57:42;;;;;;;10.18;5.78;;;;;;;29.16;39.17;99334.66;5012533;28;20136;-69
2022/10/21 05:00:25;;;;;;;12.45;6.53;;;;;;;29.32;38.83;99323.94;5055508;28;20052;-68
2022/10/21 05:03:14;;;;;;;22.70;6.07;;;;;;;29.45;38.17;99326.56;5051460;28;20044;-68
2022/10/21 05:05:56;;;;;;;9.00;5.97;;;;;;;29.41;39.08;99325.59;5065179;28;20167;-68
2022/10/21 05:08:45;;;;;;;9.02;5.60;;;;;;;29.53;37.92;99324.13;5065755;28;20102;-68
2022/10/21 05:11:34;;;;;;;16.52;6.00;;;;;;;29.37;38.70;99324.63;5065482;28;20161;-68
2022/10/21 05:14:23;;;;;;;16.23;6.50;;;;;;;29.89;38.40;99323.00;5064303;28;20113;-68
2022/10/21 05:17:12;;;;;;;12.40;6.38;;;;;;;29.53;40.26;99324.94;5047543;28;20055;-68
2022/10/21 05:20:01;;;;;;;10.30;6.13;;;;;;;29.55;39.32;99317.13;5052668;28;20098;-68
2022/10/21 05:22:44;;;;;;;9.20;6.10;;;;;;;30.08;37.63;99312.38;5055244;28;20068;-68
2022/10/21 05:25:40;;;;;;;17.48;6.10;;;;;;;30.08;37.01;99301.28;5060999;28;20098;-69
2022/10/21 05:28:29;;;;;;;12.48;5.57;;;;;;;30.60;39.23;99303.88;5047440;28;20138;-68
2022/10/21 05:31:18;;;;;;;13.45;6.15;;;;;;;30.80;41.31;99302.31;5047089;28;20076;-69
2022/10/21 05:34:07;;;;;;;17.05;6.72;;;;;;;30.30;38.67;99305.78;5065718;28;20145;-69
2022/10/21 05:36:56;;;;;;;11.40;6.47;;;;;;;30.46;36.35;99300.53;5051756;28;20057;-69
2022/10/21 05:39:38;;;;;;;14.30;6.50;;;;;;;30.08;37.42;99304.06;5085044;28;20058;-69
2022/10/21 05:42:27;;;;;;;14.25;6.45;;;;;;;30.09;38.04;99302.91;5068221;28;20053;-69
2022/10/21 05:45:23;;;;;;;15.20;6.97;;;;;;;29.88;37.73;99299.22;5033693;28;20044;-69
2022/10/21 05:47:58;;;;;;;10.60;6.82;;;;;;;29.34;38.25;99296.78;5050171;28;20059;-69
2022/10/21 05:50:51;;;;;;;13.27;6.35;;;;;;;30.54;37.33;99288.59;4957514;28;20058;-69
2022/10/21 05:53:33;;;;;;;11.05;7.10;;;;;;;30.69;39.21;99289.16;5065179;28;20052;-68
2022/10/21 05:56:22;;;;;;;15.73;8.35;;;;;;;30.92;36.76;99287.78;5065775;28;20047;-69
2022/10/21 05:59:04;;;;;;;17.63;7.57;;;;;;;30.81;36.66;99287.31;5055884;28;20048;-68
2022/10/21 06:01:59;;;;;;;12.65;6.97;;;;;;;29.99;37.81;99281.13;5048476;28;20118;-68
2022/10/21 06:04:34;;;;;;;17.52;7.35;;;;;;;30.06;37.45;99279.47;4977765;28;20150;-68
2022/10/21 06:07:24;;;;;;;17.98;8.27;;;;;;;30.97;38.55;99273.69;5066277;28;20517;-70
2022/10/21 06:10:15;;;;;;;11.98;6.30;;;;;;;30.99;36.42;99276.97;5066777;28;20048;-68
2022/10/21 06:12:57;;;;;;;20.45;7.50;;;;;;;30.71;37.06;99271.09;5069381;28;20063;-70
2022/10/21 06:15:46;;;;;;;23.65;8.52;;;;;;;30.73;39.04;99262.44;5068359;28;20052;-70
2022/10/21 06:18:31;;;;;;;13.18;6.80;;;;;;;30.45;37.32;99265.66;5067405;28;20032;-72
2022/10/21 06:21:20;;;;;;;14.32;6.40;;;;;;;30.99;39.09;99265.88;5068838;28;20483;-71
2022/10/21 06:24:02;;;;;;;18.33;6.95;;;;;;;30.89;37.06;99260.69;4990651;28;20048;-72
2022/10/21 06:26:51;;;;;;;16.75;6.38;;;;;;;30.67;37.18;99263.75;5042654;28;20065;-73
2022/10/21 06:29:33;;;;;;;14.68;6.47;;;;;;;31.02;36.78;99254.09;5050755;28;20053;-72
2022/10/21 06:32:22;;;;;;;16.65;7.30;;;;;;;30.95;35.93;99259.38;5050033;28;20053;-71
2022/10/21 06:35:04;;;;;;;11.10;6.57;;;;;;;31.41;35.94;99248.41;5069056;28;20137;-71
2022/10/21 06:37:53;;;;;;;12.98;6.60;;;;;;;31.09;35.84;99242.50;5068911;28;20793;-72
2022/10/21 06:40:35;;;;;;;11.85;6.68;;;;;;;30.90;36.94;99240.19;5046531;28;20220;-71
2022/10/21 06:43:24;;;;;;;17.92;6.80;;;;;;;31.25;38.01;99245.44;5052651;28;20045;-72
2022/10/21 06:46:08;;;;;;;15.25;6.95;;;;;;;30.72;36.17;99238.63;5069480;28;20143;-72
2022/10/21 06:48:57;;;;;;;15.98;7.15;;;;;;;30.81;36.45;99236.63;5068573;28;20055;-72
2022/10/21 06:51:39;;;;;;;22.25;8.77;;;;;;;29.89;39.06;99232.47;5068463;28;20048;-72
2022/10/21 06:54:28;;;;;;;20.52;7.70;;;;;;;29.96;35.49;99224.50;5053265;28;20057;-72
2022/10/21 06:57:10;;;;;;;17.05;7.43;;;;;;;30.45;35.38;99222.16;5048316;28;20083;-72
2022/10/21 06:59:59;;;;;;;18.52;8.30;;;;;;;30.91;36.77;99216.84;5048719;28;20057;-73
2022/10/21 07:02:41;;;;;;;15.93;8.27;;;;;;;30.88;36.74;99223.06;5048277;28;20098;-71
2022/10/21 07:05:30;;;;;;;17.33;7.40;;;;;;;30.45;38.77;99213.06;5062028;28;20098;-73
2022/10/21 07:08:12;;;;;;;13.18;8.02;;;;;;;30.96;41.06;99216.66;5064538;28;20064;-72
2022/10/21 07:11:15;;;;;;;16.80;8.25;;;;;;;30.76;38.59;99206.34;5051459;28;20475;-72
2022/10/21 07:14:11;;;;;;;15.75;7.40;;;;;;;30.89;39.05;99202.50;4997298;28;20135;-72
2022/10/21 07:16:47;;;;;;;18.42;7.85;;;;;;;30.86;38.08;99199.56;5056203;28;20048;-73
2022/10/21 07:19:36;;;;;;;24.95;8.10;;;;;;;30.99;35.87;99195.75;5042342;28;20097;-72
2022/10/21 07:22:20;;;;;;;15.55;7.35;;;;;;;31.10;37.28;99205.28;4965907;28;20077;-74
2022/10/21 07:25:15;;;;;;;14.30;7.88;;;;;;;31.02;35.72;99193.13;5022572;28;20073;-73
2022/10/21 07:28:04;;;;;;;22.48;7.80;;;;;;;30.46;36.94;99187.00;5012836;28;20111;-73
2022/10/21 07:30:54;;;;;;;20.33;8.45;;;;;;;30.35;34.98;99180.22;5036198;28;20127;-73
2022/10/21 07:33:36;;;;;;;12.77;7.90;;;;;;;31.00;37.66;99178.78;5017228;28;20053;-72
2022/10/21 07:36:33;;;;;;;22.75;8.18;;;;;;;30.89;37.69;99177.53;5047690;28;20060;-73
2022/10/21 07:39:17;;;;;;;16.73;8.48;;;;;;;30.40;35.70;99174.47;5029142;28;20528;-72
2022/10/21 07:42:08;;;;;;;15.57;8.32;;;;;;;30.80;35.73;99172.09;5033440;28;20468;-72
2022/10/21 07:44:52;;;;;;;21.20;8.68;;;;;;;30.92;37.83;99162.25;5018124;28;20106;-72
2022/10/21 07:47:41;;;;;;;13.73;8.43;;;;;;;30.86;37.18;99160.78;5038218;28;20135;-73
2022/10/21 07:50:23;;;;;;;21.45;8.63;;;;;;;30.68;36.50;99154.56;5029039;28;20044;-72
2022/10/21 07:53:12;;;;;;;16.80;8.52;;;;;;;30.69;36.47;99148.69;5036390;28;20060;-73
2022/10/21 07:56:07;;;;;;;23.30;10.07;;;;;;;30.37;37.31;99148.25;5040821;28;20068;-73
2022/10/21 07:58:57;;;;;;;20.98;9.25;;;;;;;30.67;37.61;99142.69;5025844;28;20706;-70
2022/10/21 08:01:42;;;;;;;16.95;8.57;;;;;;;30.83;37.57;99142.88;5040370;28;20053;-70
2022/10/21 08:04:32;;;;;;;14.98;8.95;;;;;;;30.80;35.78;99129.69;5009903;28;20608;-72
2022/10/21 08:07:14;;;;;;;18.45;9.10;;;;;;;30.52;35.68;99129.44;5026044;28;20080;-72
2022/10/21 08:10:03;;;;;;;23.15;9.68;;;;;;;30.99;37.07;99127.28;5031418;28;20057;-72
2022/10/21 08:12:45;;;;;;;15.50;8.60;;;;;;;31.01;38.86;99133.31;5036668;28;20049;-73
2022/10/21 08:15:34;;;;;;;20.02;8.93;;;;;;;31.01;37.61;99129.69;5034499;28;20060;-72
2022/10/21 08:18:17;;;;;;;17.15;8.52;;;;;;;30.79;36.33;99130.84;5029435;28;20372;-72
2022/10/21 08:21:09;;;;;;;24.58;9.80;;;;;;;30.53;36.11;99115.22;5027718;28;20436;-72
2022/10/21 08:24:07;;;;;;;23.95;9.40;;;;;;;30.69;36.09;99125.72;5010946;28;20049;-73
2022/10/21 08:26:56;;;;;;;26.55;9.07;;;;;;;30.66;36.23;99118.88;5046497;28;20392;-72
2022/10/21 08:29:45;;;;;;;21.67;9.70;;;;;;;30.53;38.28;99115.22;5031785;28;20040;-71
2022/10/21 08:32:27;;;;;;;16.45;8.85;;;;;;;30.09;36.07;99111.13;5064541;28;20086;-71
2022/10/21 08:35:16;;;;;;;22.15;10.00;;;;;;;30.50;36.61;99099.31;5066077;28;20048;-71
2022/10/21 08:38:05;;;;;;;16.35;8.07;;;;;;;30.80;37.37;99102.81;5066637;28;20049;-71
2022/10/21 08:40:54;;;;;;;20.20;9.80;;;;;;;30.70;35.33;99099.63;4948316;28;20066;-71
2022/10/21 08:43:43;;;;;;;19.38;8.90;;;;;;;30.59;36.60;99097.28;5053141;28;20036;-71
2022/10/21 08:46:30;;;;;;;18.60;9.73;;;;;;;30.22;34.43;99088.72;5026456;28;20501;-71
2022/10/21 08:49:48;;;;;;;17.08;9.73;;;;;;;30.63;34.85;99092.69;5050626;28;20048;-72
2022/10/21 08:52:48;;;;;;;24.85;9.85;;;;;;;30.54;35.19;99088.38;5067739;28;20048;-72
2022/10/21 08:55:39;;;;;;;19.67;10.30;;;;;;;30.61;37.71;99083.91;4966807;28;20074;-72
2022/10/21 08:58:30;;;;;;;26.48;10.63;;;;;;;30.36;35.05;99082.13;5048134;28;20045;-71
2022/10/21 09:01:22;;;;;;;22.63;10.90;;;;;;;30.05;35.60;99078.56;5053860;28;20252;-71
2022/10/21 09:04:23;;;;;;;26.88;11.32;;;;;;;30.52;35.82;99077.63;5057393;28;20045;-72
2022/10/21 09:07:29;;;;;;;24.55;11.18;;;;;;;30.53;35.95;99081.19;5056755;28;20052;-71
2022/10/21 09:10:38;;;;;;;21.73;11.48;;;;;;;30.63;37.04;99073.28;5040174;28;20156;-73
2022/10/21 09:13:31;;;;;;;27.90;13.18;;;;;;;30.52;38.12;99074.84;5051879;28;20049;-71
2022/10/21 09:16:48;;;;;;;29.15;12.32;;;;;;;30.30;39.09;99067.66;5053554;28;20069;-72
2022/10/21 09:19:57;;;;;;;22.25;12.90;;;;;;;30.34;39.30;99078.91;5048668;28;20056;-71
2022/10/21 09:23:06;;;;;;;26.20;13.10;;;;;;;30.32;38.72;99064.56;5059088;28;20140;-71
2022/10/21 09:25:59;;;;;;;30.42;13.63;;;;;;;30.59;38.27;99060.44;5052300;28;20466;-69
2022/10/21 09:28:49;;;;;;;26.17;13.40;;;;;;;30.51;39.31;99056.59;5058936;28;20048;-70
2022/10/21 09:31:31;;;;;;;34.93;13.43;;;;;;;30.45;40.53;99061.53;5057264;28;20110;-68
2022/10/21 09:34:41;;;;;;;25.23;12.27;;;;;;;30.62;39.82;99057.81;5044043;28;20290;-68
2022/10/21 09:37:38;;;;;;;32.88;15.18;;;;;;;30.42;38.93;99053.09;5053678;28;20076;-69
2022/10/21 09:40:33;;;;;;;29.80;13.68;;;;;;;30.24;39.67;99055.97;5039160;28;20060;-69
2022/10/21 09:43:19;;;;;;;28.83;12.32;;;;;;;30.39;39.65;99056.56;5068635;28;20044;-68
2022/10/21 09:46:10;;;;;;;22.55;12.80;;;;;;;30.12;39.74;99052.34;5063992;28;20332;-68
2022/10/21 09:48:59;;;;;;;33.45;12.90;;;;;;;30.43;40.73;99047.22;5069901;28;20453;-70
2022/10/21 09:52:11;;;;;;;31.73;13.32;;;;;;;30.25;40.08;99046.53;5063578;28;20044;-68
2022/10/21 09:54:53;;;;;;;38.75;13.95;;;;;;;30.31;40.84;99051.88;5070922;28;20410;-69
2022/10/21 09:57:55;;;;;;;38.28;14.23;;;;;;;30.12;40.39;99039.28;4960397;28;20895;-70
2022/10/21 10:00:48;;;;;;;23.60;11.50;;;;;;;30.26;39.94;99042.59;5046618;28;20159;-70
2022/10/21 10:03:58;;;;;;;24.15;11.60;;;;;;;29.98;40.45;99047.03;4965455;28;20061;-69
2022/10/21 10:06:43;;;;;;;25.77;12.57;;;;;;;29.79;41.60;99041.94;4963093;28;20051;-70
2022/10/21 10:09:37;;;;;;;28.23;13.27;;;;;;;30.03;40.84;99041.31;5060440;28;20045;-70
2022/10/21 10:12:25;;;;;;;22.98;11.60;;;;;;;29.79;42.81;99037.22;5066293;28;20044;-70
2022/10/21 10:15:38;;;;;;;25.92;13.00;;;;;;;29.79;42.68;99037.22;5079318;28;20060;-69
2022/10/21 10:18:21;;;;;;;26.05;11.70;;;;;;;29.68;43.08;99035.94;5065359;28;20059;-69
2022/10/21 10:21:19;;;;;;;26.27;13.15;;;;;;;29.50;44.45;99034.41;5067954;28;20060;-70
2022/10/21 10:24:02;;;;;;;30.77;12.35;;;;;;;29.63;44.00;99042.47;5057556;28;20462;-70
2022/10/21 10:26:58;;;;;;;29.48;14.00;;;;;;;29.71;44.31;99035.25;5077224;28;20113;-69
2022/10/21 10:29:34;;;;;;;28.50;13.85;;;;;;;29.61;43.87;99038.41;5059308;28;20057;-71
2022/10/21 10:32:28;;;;;;;26.98;14.20;;;;;;;29.28;43.99;99039.06;5050906;28;20056;-70
2022/10/21 10:35:21;;;;;;;31.52;14.27;;;;;;;29.66;44.68;99035.47;5068673;28;20079;-69
2022/10/21 10:38:22;;;;;;;31.73;15.60;;;;;;;29.33;44.62;99038.03;5024910;28;20175;-69
2022/10/21 10:41:19;;;;;;;35.30;14.50;;;;;;;29.50;44.75;99034.41;5067952;28;20125;-69
2022/10/21 10:44:29;;;;;;;30.52;14.57;;;;;;;29.35;46.26;99042.13;5067039;28;20833;-69
2022/10/21 10:47:33;;;;;;;29.90;14.10;;;;;;;29.36;44.54;99037.41;5056297;28;20064;-69
2022/10/21 10:50:39;;;;;;;28.35;15.10;;;;;;;29.33;44.82;99035.28;5037287;28;20045;-70
2022/10/21 10:53:34;;;;;;;36.47;16.55;;;;;;;29.32;45.02;99041.97;5068129;28;20068;-69
2022/10/21 10:56:44;;;;;;;29.88;15.52;;;;;;;29.26;46.61;99035.81;5069021;28;20071;-70
2022/10/21 10:59:50;;;;;;;35.42;15.38;;;;;;;29.14;45.86;99042.03;5044247;28;20052;-71
2022/10/21 11:03:00;;;;;;;25.33;14.57;;;;;;;29.03;45.99;99038.78;5031956;28;20053;-71
2022/10/21 11:05:54;;;;;;;28.10;15.63;;;;;;;28.98;44.98;99038.94;5036436;28;20056;-72
2022/10/21 11:08:41;;;;;;;32.97;17.02;;;;;;;28.75;46.16;99043.03;5030179;28;20684;-70
2022/10/21 11:11:40;;;;;;;34.10;17.02;;;;;;;28.84;45.92;99046.63;5061562;28;20051;-71
2022/10/21 11:14:29;;;;;;;40.45;19.13;;;;;;;29.05;45.75;99047.53;5067874;28;20048;-69
2022/10/21 11:17:25;;;;;;;33.92;17.45;;;;;;;28.79;46.64;99046.78;5068326;28;20069;-71
2022/10/21 11:20:15;;;;;;;35.60;17.23;;;;;;;28.89;45.66;99051.94;5069261;28;20048;-68
2022/10/21 11:23:33;;;;;;;31.75;15.88;;;;;;;28.80;47.73;99051.19;5053397;28;20052;-69
2022/10/21 11:26:31;;;;;;;39.25;17.77;;;;;;;28.75;47.41;99056.84;5065160;28;20670;-69
2022/10/21 11:29:23;;;;;;;30.80;16.90;;;;;;;28.49;47.37;99049.38;5057835;28;20121;-69
2022/10/21 11:32:40;;;;;;;33.03;17.48;;;;;;;28.65;46.57;99053.28;5049648;28;20523;-71
2022/10/21 11:35:31;;;;;;;;;;;;;;;28.70;46.41;99052.31;4688534;28;9999867;-70
2022/10/21 11:38:51;;;;;;;37.58;18.73;;;;;;;28.57;47.10;99056.88;5052417;28;19935;-66
2022/10/21 11:42:11;;;;;;;40.58;17.95;;;;;;;28.54;47.78;99054.75;5054231;28;20052;-70
2022/10/21 11:45:16;;;;;;;42.33;18.63;;;;;;;28.40;46.24;99048.56;5066574;28;20048;-68
2022/10/21 11:48:11;;;;;;;35.72;18.75;;;;;;;28.40;48.65;99056.84;5065336;28;20048;-68
2022/10/21 11:51:17;;;;;;;34.50;18.13;;;;;;;28.30;47.88;99053.25;5066258;28;20048;-67
2022/10/21 11:54:24;;;;;;;39.45;18.65;;;;;;;28.30;49.87;99055.22;5065328;28;20113;-68
2022/10/21 11:57:29;;;;;;;33.60;17.48;;;;;;;28.21;48.09;99063.47;5044696;28;20117;-68
2022/10/21 12:00:32;;;;;;;35.13;17.05;;;;;;;28.12;49.66;99059.88;4706701;28;10000572;-69
2022/10/21 12:03:48;;;;;;;40.92;19.38;;;;;;;27.99;49.12;99063.59;5037573;28;20098;-69
2022/10/21 12:07:01;;;;;;;34.78;18.10;;;;;;;28.04;49.66;99058.75;5054531;28;20495;-71
2022/10/21 12:10:01;;;;;;;40.22;18.83;;;;;;;28.00;50.07;99068.78;5027348;28;20118;-72
2022/10/21 12:12:55;;;;;;;34.90;18.63;;;;;;;27.95;49.65;99066.19;5057118;28;20060;-71
2022/10/21 12:15:52;;;;;;;42.95;19.67;;;;;;;27.95;49.83;99068.13;5064624;28;20064;-71
2022/10/21 12:18:53;;;;;;;42.60;19.95;;;;;;;27.82;50.42;99067.91;5046674;28;20503;-71
2022/10/21 12:21:36;;;;;;;;;;;;;;;27.77;50.13;99073.56;5066226;28;20056;-70
2022/10/21 12:25:11;;;;;;;47.78;18.77;;;;;;;27.77;49.47;99070.81;5053057;28;19994;-69
2022/10/21 12:28:11;;;;;;;42.60;20.45;;;;;;;27.70;50.66;99074.03;4964687;28;20045;-69
2022/10/21 12:31:50;;;;;;;61.53;21.70;;;;;;;27.56;51.25;99078.03;5039061;28;20545;-69
2022/10/21 12:34:39;;;;;;;48.42;22.17;;;;;;;27.48;52.17;99080.44;5044476;28;20041;-70
2022/10/21 12:38:10;;;;;;;63.88;24.23;;;;;;;27.53;51.37;99085.81;5014806;28;20556;-70
2022/10/21 12:41:20;;;;;;;55.65;25.63;;;;;;;27.43;51.18;99088.03;5030940;28;20045;-70
2022/10/21 12:44:20;;;;;;;56.70;24.83;;;;;;;27.40;51.91;99086.72;5029113;28;20118;-70
2022/10/21 12:47:20;;;;;;;53.85;23.90;;;;;;;27.34;52.06;99085.22;5046396;28;20056;-70
2022/10/21 12:50:30;;;;;;;60.53;24.60;;;;;;;27.27;52.07;99085.69;5044616;28;20045;-70
2022/10/21 12:53:41;;;;;;;62.60;26.30;;;;;;;27.25;52.12;99087.13;5039371;28;20368;-69
2022/10/21 12:56:55;;;;;;;65.85;26.15;;;;;;;27.19;54.05;99088.34;5039261;28;20534;-70
2022/10/21 12:59:44;;;;;;;66.00;25.42;;;;;;;27.16;52.48;99095.31;5030492;28;20049;-68
2022/10/21 13:02:34;;;;;;;73.22;27.83;;;;;;;27.05;53.45;99093.94;5030722;28;20087;-69
2022/10/21 13:05:36;;;;;;;58.28;27.48;;;;;;;27.03;53.57;99097.00;5025934;28;20048;-68
2022/10/21 13:08:26;;;;;;;61.72;28.45;;;;;;;26.90;53.04;99098.72;5044657;28;20053;-68
2022/10/21 13:11:08;;;;;;;63.83;29.15;;;;;;;26.85;53.40;99095.28;5041456;28;20689;-68
2022/10/21 13:14:22;;;;;;;70.13;30.17;;;;;;;26.80;53.40;99101.69;5038669;28;20482;-69
2022/10/21 13:17:29;;;;;;;70.45;29.75;;;;;;;26.74;53.29;99101.00;5027985;28;20128;-68
2022/10/21 13:20:22;;;;;;;67.50;30.17;;;;;;;26.68;53.61;99107.75;5040711;28;20788;-68